createdAt,value
2022-12-03T00:01:04.732Z,15.50
2022-12-03T00:06:07.770Z,17.20
2022-12-03T00:11:10.457Z,14.60
2022-12-03T00:16:13.870Z,14.30
2022-12-03T00:21:16.994Z,12.70
2022-12-03T00:26:19.899Z,15.60
2022-12-03T00:31:23.748Z,23.00
2022-12-03T00:36:26.635Z,17.40
2022-12-03T00:41:29.432Z,14.50
2022-12-03T00:46:32.266Z,14.30
2022-12-03T00:51:36.011Z,14.70
2022-12-03T00:56:38.853Z,11.20
2022-12-03T01:01:41.717Z,13.60
2022-12-03T01:06:44.506Z,10.80
2022-12-03T01:11:47.247Z,17.80
2022-12-03T01:16:50.019Z,18.60
2022-12-03T01:21:52.963Z,16.30
2022-12-03T01:26:56.907Z,15.20
2022-12-03T01:32:18.242Z,15.20
2022-12-03T01:37:24.650Z,13.70
2022-12-03T01:42:32.447Z,11.60
2022-12-03T01:47:37.331Z,11.90
2022-12-03T01:52:40.901Z,13.20
2022-12-03T01:57:50.667Z,20.60
2022-12-03T02:03:00.211Z,19.10
2022-12-03T02:08:26.489Z,17.50
2022-12-03T02:13:29.485Z,16.20
2022-12-03T02:18:32.390Z,17.60
2022-12-03T02:24:06.096Z,14.70
2022-12-03T02:29:08.916Z,14.10
2022-12-03T02:34:11.817Z,13.40
2022-12-03T02:39:14.620Z,22.00
2022-12-03T02:44:17.421Z,19.50
2022-12-03T02:49:20.225Z,17.40
2022-12-03T02:54:23.598Z,18.20
2022-12-03T02:59:26.542Z,16.30
2022-12-03T03:04:30.076Z,12.90
2022-12-03T03:09:33.973Z,13.40
2022-12-03T03:14:36.787Z,15.00
2022-12-03T03:19:39.557Z,18.70
2022-12-03T03:24:42.392Z,20.40
2022-12-03T03:29:45.192Z,12.30
2022-12-03T03:34:47.959Z,13.50
2022-12-03T03:39:51.129Z,12.50
2022-12-03T03:44:54.062Z,10.30
2022-12-03T03:49:57.114Z,10.50
2022-12-03T03:54:59.907Z,16.00
2022-12-03T04:00:04.940Z,15.70
2022-12-03T04:05:11.446Z,13.60
2022-12-03T04:10:37.689Z,10.70
2022-12-03T04:15:40.414Z,12.40
2022-12-03T04:20:43.146Z,11.90
2022-12-03T04:26:04.855Z,12.10
2022-12-03T04:31:26.804Z,15.90
2022-12-03T04:36:29.507Z,16.60
2022-12-03T04:41:32.198Z,14.60
2022-12-03T04:46:34.910Z,14.10
2022-12-03T04:51:37.630Z,13.00
2022-12-03T04:56:40.400Z,13.70
2022-12-03T05:01:43.522Z,11.10
2022-12-03T05:06:46.926Z,12.20
2022-12-03T05:11:49.726Z,12.10
2022-12-03T05:16:52.605Z,20.40
2022-12-03T05:21:55.468Z,18.10
2022-12-03T05:26:58.232Z,16.40
2022-12-03T05:32:01.039Z,15.80
2022-12-03T05:37:03.742Z,12.60
2022-12-03T05:42:25.311Z,13.40
2022-12-03T05:47:28.076Z,11.90
2022-12-03T05:52:30.984Z,20.10
2022-12-03T05:57:33.757Z,22.90
2022-12-03T06:02:36.564Z,19.50
2022-12-03T06:07:39.809Z,13.40
2022-12-03T06:12:43.281Z,15.70
2022-12-03T06:17:46.420Z,17.30
2022-12-03T06:22:49.220Z,14.80
2022-12-03T06:27:52.023Z,14.80
2022-12-03T06:32:55.028Z,12.80
2022-12-03T06:37:58.239Z,21.80
2022-12-03T06:43:01.047Z,19.50
2022-12-03T06:48:03.964Z,19.10
2022-12-03T06:53:06.689Z,15.40
2022-12-03T06:58:09.451Z,15.80
2022-12-03T07:03:12.472Z,15.30
2022-12-03T07:08:15.333Z,18.30
2022-12-03T07:13:18.054Z,12.70
2022-12-03T07:18:20.981Z,19.00
2022-12-03T07:23:23.805Z,18.90
2022-12-03T07:28:26.561Z,19.60
2022-12-03T07:33:29.286Z,18.60
2022-12-03T07:38:31.994Z,16.50
2022-12-03T07:43:34.833Z,18.90
2022-12-03T07:48:37.669Z,21.30
2022-12-03T07:53:40.389Z,19.10
2022-12-03T07:58:43.131Z,18.00
2022-12-03T08:03:45.867Z,26.80
2022-12-03T08:08:48.577Z,23.20
2022-12-03T08:13:51.275Z,21.40
2022-12-03T08:18:57.512Z,18.00
2022-12-03T08:24:12.724Z,18.00
2022-12-03T08:29:19.020Z,21.30
2022-12-03T08:34:24.567Z,16.90
2022-12-03T08:39:37.735Z,15.90
2022-12-03T08:44:41.251Z,13.90
2022-12-03T08:49:51.441Z,24.80
2022-12-03T08:54:56.270Z,23.80
2022-12-03T08:59:59.477Z,20.70
2022-12-03T09:05:22.208Z,25.60
2022-12-03T09:10:24.921Z,27.70
2022-12-03T09:15:28.577Z,23.20
2022-12-03T09:20:31.376Z,23.60
2022-12-03T09:25:34.325Z,18.20
2022-12-03T09:30:37.786Z,24.10
2022-12-03T09:35:40.473Z,21.40
2022-12-03T09:40:43.294Z,18.20
2022-12-03T09:45:47.779Z,15.30
2022-12-03T09:50:51.853Z,14.90
2022-12-03T09:56:01.400Z,15.30
2022-12-03T10:01:13.869Z,19.90
2022-12-03T10:06:23.217Z,20.00
2022-12-03T10:11:27.127Z,17.80
2022-12-03T10:16:30.915Z,22.70
2022-12-03T10:21:38.784Z,24.20
2022-12-03T10:26:41.789Z,16.40
2022-12-03T10:31:45.080Z,17.90
2022-12-03T10:36:47.782Z,16.20
2022-12-03T10:41:50.605Z,26.50
2022-12-03T10:47:10.376Z,23.50
2022-12-03T10:52:25.933Z,23.70
2022-12-03T10:57:29.107Z,22.60
2022-12-03T11:02:31.914Z,21.80
2022-12-03T11:07:38.736Z,19.20
2022-12-03T11:17:47.391Z,23.10
2022-12-03T11:22:51.507Z,22.10
2022-12-03T11:28:15.596Z,20.80
2022-12-03T11:33:33.472Z,19.30
2022-12-03T11:38:54.083Z,20.90
2022-12-03T11:43:58.619Z,23.30
2022-12-03T11:49:03.688Z,18.00
2022-12-03T11:54:06.545Z,22.60
2022-12-03T11:59:13.515Z,16.40
2022-12-03T12:04:38.135Z,29.10
2022-12-03T12:09:55.345Z,32.20
2022-12-03T12:14:59.400Z,36.80
2022-12-03T12:20:27.901Z,31.20
2022-12-03T12:25:30.650Z,27.30
2022-12-03T12:30:33.860Z,22.90
2022-12-03T12:35:37.205Z,17.40
2022-12-03T12:40:45.122Z,24.60
2022-12-03T12:45:48.179Z,27.60
2022-12-03T12:51:01.177Z,24.70
2022-12-03T12:56:09.960Z,22.10
2022-12-03T13:01:21.617Z,25.10
2022-12-03T13:06:28.345Z,27.40
2022-12-03T13:11:45.757Z,23.50
2022-12-03T13:16:53.901Z,19.90
2022-12-03T13:22:02.819Z,19.40
2022-12-03T13:27:23.128Z,29.00
2022-12-03T13:32:27.299Z,23.70
2022-12-03T13:37:31.824Z,23.20
2022-12-03T13:42:39.220Z,23.50
2022-12-03T13:47:47.532Z,18.10
2022-12-03T13:52:50.312Z,21.80
2022-12-03T13:57:53.706Z,17.70
2022-12-03T14:02:56.517Z,22.70
2022-12-03T14:08:02.263Z,22.00
2022-12-03T14:13:05.204Z,35.50
2022-12-03T14:18:07.951Z,35.20
2022-12-03T14:23:10.672Z,24.40
2022-12-03T14:28:13.453Z,24.20
2022-12-03T14:33:16.251Z,22.90
2022-12-03T14:38:19.259Z,18.80
2022-12-03T14:43:22.073Z,16.60
2022-12-03T14:48:24.755Z,19.40
2022-12-03T14:53:27.747Z,30.50
2022-12-03T14:58:30.530Z,25.90
2022-12-03T15:03:33.288Z,21.50
2022-12-03T15:08:36.031Z,29.70
2022-12-03T15:13:38.809Z,18.50
2022-12-03T15:18:41.546Z,17.70
2022-12-03T15:23:44.293Z,18.40
2022-12-03T15:28:48.506Z,19.10
2022-12-03T15:33:51.724Z,24.00
2022-12-03T15:38:54.523Z,36.10
2022-12-03T15:43:59.961Z,25.80
2022-12-03T15:49:03.412Z,23.90
2022-12-03T15:54:06.847Z,21.60
2022-12-03T15:59:09.845Z,23.30
2022-12-03T16:04:12.683Z,33.50
2022-12-03T16:09:15.504Z,29.30
2022-12-03T16:14:20.472Z,18.90
2022-12-03T16:19:23.198Z,24.20
2022-12-03T16:24:26.312Z,23.90
2022-12-03T16:29:29.598Z,20.00
2022-12-03T16:34:32.368Z,18.20
2022-12-03T16:39:35.345Z,17.90
2022-12-03T16:44:58.374Z,16.10
2022-12-03T16:50:07.593Z,21.10
2022-12-03T16:55:10.427Z,29.30
2022-12-03T17:00:14.205Z,27.20
2022-12-03T17:05:17.057Z,22.90
2022-12-03T17:10:19.854Z,22.20
2022-12-03T17:15:22.948Z,19.40
2022-12-03T17:20:25.931Z,14.90
2022-12-03T17:25:30.049Z,18.30
2022-12-03T17:30:33.275Z,21.50
2022-12-03T17:35:36.089Z,28.50
2022-12-03T17:40:39.026Z,20.20
2022-12-03T17:45:43.521Z,17.90
2022-12-03T17:50:46.766Z,18.50
2022-12-03T17:55:49.617Z,16.80
2022-12-03T18:00:54.891Z,16.30
2022-12-03T18:06:00.102Z,29.80
2022-12-03T18:11:02.895Z,26.00
2022-12-03T18:16:06.063Z,21.90
2022-12-03T18:21:08.899Z,30.20
2022-12-03T18:26:11.876Z,25.40
2022-12-03T18:31:16.601Z,20.70
2022-12-03T18:36:25.695Z,17.80
2022-12-03T18:41:28.864Z,39.60
2022-12-03T18:46:52.350Z,30.00
2022-12-03T18:51:58.874Z,17.40
2022-12-03T18:57:02.198Z,18.20
2022-12-03T19:02:05.750Z,16.00
2022-12-03T19:07:09.773Z,23.80
2022-12-03T19:12:14.714Z,27.40
2022-12-03T19:17:17.737Z,28.70
2022-12-03T19:22:20.512Z,35.20
2022-12-03T19:27:23.257Z,25.70
2022-12-03T19:32:25.984Z,25.10
2022-12-03T19:37:30.969Z,23.60
2022-12-03T19:42:33.770Z,25.90
2022-12-03T19:47:37.081Z,25.00
2022-12-03T19:52:39.782Z,25.30
2022-12-03T19:57:42.471Z,29.20
2022-12-03T20:02:48.899Z,26.20
2022-12-03T20:07:51.748Z,25.30
2022-12-03T20:12:54.528Z,26.60
2022-12-03T20:17:57.367Z,25.50
2022-12-03T20:23:00.080Z,25.50
2022-12-03T20:28:02.785Z,20.70
2022-12-03T20:33:05.572Z,22.30
2022-12-03T20:38:08.282Z,28.20
2022-12-03T20:43:11.074Z,24.90
2022-12-03T20:48:14.169Z,21.90
2022-12-03T20:53:24.642Z,20.30
2022-12-03T20:58:28.706Z,20.40
2022-12-03T21:03:31.492Z,19.80
2022-12-03T21:08:41.399Z,20.50
2022-12-03T21:13:47.966Z,28.20
2022-12-03T21:18:50.727Z,27.90
2022-12-03T21:23:53.635Z,23.80
2022-12-03T21:28:56.355Z,22.60
2022-12-03T21:33:59.150Z,23.50
2022-12-03T21:39:01.937Z,22.20
2022-12-03T21:44:04.752Z,21.70
2022-12-03T21:49:07.669Z,24.50
2022-12-03T21:54:10.569Z,24.90
2022-12-03T21:59:13.270Z,24.90
2022-12-03T22:04:15.950Z,20.90
2022-12-03T22:09:24.804Z,20.60
2022-12-03T22:14:30.006Z,17.80
2022-12-03T22:19:32.767Z,16.40
2022-12-03T22:24:35.568Z,28.80
2022-12-03T22:29:38.317Z,27.00
2022-12-03T22:34:44.218Z,24.90
2022-12-03T22:39:47.033Z,23.20
2022-12-03T22:44:49.722Z,23.20
2022-12-03T22:49:52.638Z,21.70
2022-12-03T22:54:55.652Z,24.60
2022-12-03T22:59:58.352Z,31.10
2022-12-03T23:05:01.154Z,29.40
2022-12-03T23:10:04.736Z,27.10
2022-12-03T23:15:08.510Z,25.40
2022-12-03T23:20:12.357Z,20.10
2022-12-03T23:25:15.532Z,18.20
2022-12-03T23:30:18.425Z,29.80
2022-12-03T23:35:21.375Z,25.90
2022-12-03T23:40:24.246Z,24.50
2022-12-03T23:45:26.993Z,25.10
2022-12-03T23:50:30.314Z,21.70
2022-12-03T23:55:33.779Z,20.90
